sensor_id;sensor_type;location;lat;lon;timestamp;temperature;humidity
18218;DHT22;9234;49.344;11.120;2023-08-06T00:00:20;16.10;99.90
18218;DHT22;9234;49.344;11.120;2023-08-06T00:02:49;16.10;99.90
18218;DHT22;9234;49.344;11.120;2023-08-06T00:05:18;16.00;99.90
18218;DHT22;9234;49.344;11.120;2023-08-06T00:07:48;16.00;99.90
18218;DHT22;9234;49.344;11.120;2023-08-06T00:10:17;15.90;99.90
18218;DHT22;9234;49.344;11.120;2023-08-06T00:12:47;15.90;99.90
18218;DHT22;9234;49.344;11.120;2023-08-06T00:15:15;15.90;99.90
18218;DHT22;9234;49.344;11.120;2023-08-06T00:17:44;15.80;99.90
18218;DHT22;9234;49.344;11.120;2023-08-06T00:20:13;15.80;99.90
18218;DHT22;9234;49.344;11.120;2023-08-06T00:22:41;15.80;99.90
18218;DHT22;9234;49.344;11.120;2023-08-06T00:25:10;15.70;99.90
18218;DHT22;9234;49.344;11.120;2023-08-06T00:27:38;15.70;99.90
18218;DHT22;9234;49.344;11.120;2023-08-06T00:30:09;15.70;99.90
18218;DHT22;9234;49.344;11.120;2023-08-06T00:32:38;15.70;99.90
18218;DHT22;9234;49.344;11.120;2023-08-06T00:35:07;15.70;99.90
18218;DHT22;9234;49.344;11.120;2023-08-06T00:37:36;15.70;99.90
18218;DHT22;9234;49.344;11.120;2023-08-06T00:40:06;15.70;99.90
18218;DHT22;9234;49.344;11.120;2023-08-06T00:42:35;15.70;99.90
18218;DHT22;9234;49.344;11.120;2023-08-06T00:45:05;15.70;99.90
18218;DHT22;9234;49.344;11.120;2023-08-06T00:47:36;15.70;99.90
18218;DHT22;9234;49.344;11.120;2023-08-06T00:50:08;15.70;99.90
18218;DHT22;9234;49.344;11.120;2023-08-06T00:52:37;15.70;99.90
18218;DHT22;9234;49.344;11.120;2023-08-06T00:55:06;15.60;99.90
18218;DHT22;9234;49.344;11.120;2023-08-06T00:57:35;15.60;99.90
18218;DHT22;9234;49.344;11.120;2023-08-06T01:00:05;15.60;99.90
18218;DHT22;9234;49.344;11.120;2023-08-06T01:02:36;15.60;99.90
18218;DHT22;9234;49.344;11.120;2023-08-06T01:05:06;15.60;99.90
18218;DHT22;9234;49.344;11.120;2023-08-06T01:07:50;15.60;99.90
18218;DHT22;9234;49.344;11.120;2023-08-06T01:10:39;15.60;99.90
18218;DHT22;9234;49.344;11.120;2023-08-06T01:13:18;15.60;99.90
18218;DHT22;9234;49.344;11.120;2023-08-06T01:15:56;15.60;99.90
18218;DHT22;9234;49.344;11.120;2023-08-06T01:18:27;15.60;99.90
18218;DHT22;9234;49.344;11.120;2023-08-06T01:20:58;15.60;99.90
18218;DHT22;9234;49.344;11.120;2023-08-06T01:23:26;15.60;99.90
18218;DHT22;9234;49.344;11.120;2023-08-06T01:26:05;15.50;99.90
18218;DHT22;9234;49.344;11.120;2023-08-06T01:28:44;15.50;99.90
18218;DHT22;9234;49.344;11.120;2023-08-06T01:31:26;15.50;99.90
18218;DHT22;9234;49.344;11.120;2023-08-06T01:33:58;15.50;99.90
18218;DHT22;9234;49.344;11.120;2023-08-06T01:36:30;15.50;99.90
18218;DHT22;9234;49.344;11.120;2023-08-06T01:38:59;15.50;99.90
18218;DHT22;9234;49.344;11.120;2023-08-06T01:41:28;15.50;99.90
18218;DHT22;9234;49.344;11.120;2023-08-06T01:43:57;15.40;99.90
18218;DHT22;9234;49.344;11.120;2023-08-06T01:46:25;15.40;99.90
18218;DHT22;9234;49.344;11.120;2023-08-06T01:48:54;15.40;99.90
18218;DHT22;9234;49.344;11.120;2023-08-06T01:51:22;15.40;99.90
18218;DHT22;9234;49.344;11.120;2023-08-06T01:53:51;15.40;99.90
18218;DHT22;9234;49.344;11.120;2023-08-06T01:56:20;15.40;99.90
18218;DHT22;9234;49.344;11.120;2023-08-06T01:58:48;15.40;99.90
18218;DHT22;9234;49.344;11.120;2023-08-06T02:01:17;15.40;99.90
18218;DHT22;9234;49.344;11.120;2023-08-06T02:03:45;15.30;99.90
18218;DHT22;9234;49.344;11.120;2023-08-06T02:06:13;15.30;99.90
18218;DHT22;9234;49.344;11.120;2023-08-06T02:08:42;15.30;99.90
18218;DHT22;9234;49.344;11.120;2023-08-06T02:11:11;15.30;99.90
18218;DHT22;9234;49.344;11.120;2023-08-06T02:13:40;15.30;99.90
18218;DHT22;9234;49.344;11.120;2023-08-06T02:16:08;15.30;99.90
18218;DHT22;9234;49.344;11.120;2023-08-06T02:18:37;15.30;99.90
18218;DHT22;9234;49.344;11.120;2023-08-06T02:21:05;15.30;99.90
18218;DHT22;9234;49.344;11.120;2023-08-06T02:23:34;15.30;99.90
18218;DHT22;9234;49.344;11.120;2023-08-06T02:26:03;15.30;99.90
18218;DHT22;9234;49.344;11.120;2023-08-06T02:28:33;15.30;99.90
18218;DHT22;9234;49.344;11.120;2023-08-06T02:31:02;15.30;99.90
18218;DHT22;9234;49.344;11.120;2023-08-06T02:33:30;15.30;99.90
18218;DHT22;9234;49.344;11.120;2023-08-06T02:35:59;15.20;99.90
18218;DHT22;9234;49.344;11.120;2023-08-06T02:38:29;15.20;99.90
18218;DHT22;9234;49.344;11.120;2023-08-06T02:40:57;15.20;99.90
18218;DHT22;9234;49.344;11.120;2023-08-06T02:43:25;15.20;99.90
18218;DHT22;9234;49.344;11.120;2023-08-06T02:45:58;15.20;99.90
18218;DHT22;9234;49.344;11.120;2023-08-06T02:48:27;15.20;99.90
18218;DHT22;9234;49.344;11.120;2023-08-06T02:50:57;15.20;99.90
18218;DHT22;9234;49.344;11.120;2023-08-06T02:53:29;15.20;99.90
18218;DHT22;9234;49.344;11.120;2023-08-06T02:56:02;15.20;99.90
18218;DHT22;9234;49.344;11.120;2023-08-06T02:58:51;15.20;99.90
18218;DHT22;9234;49.344;11.120;2023-08-06T03:01:37;15.20;99.90
18218;DHT22;9234;49.344;11.120;2023-08-06T03:04:13;15.20;99.90
18218;DHT22;9234;49.344;11.120;2023-08-06T03:06:44;15.20;99.90
18218;DHT22;9234;49.344;11.120;2023-08-06T03:09:12;15.20;99.90
18218;DHT22;9234;49.344;11.120;2023-08-06T03:11:41;15.20;99.90
18218;DHT22;9234;49.344;11.120;2023-08-06T03:14:13;15.20;99.90
18218;DHT22;9234;49.344;11.120;2023-08-06T03:16:44;15.20;99.90
18218;DHT22;9234;49.344;11.120;2023-08-06T03:19:15;15.20;99.90
18218;DHT22;9234;49.344;11.120;2023-08-06T03:21:44;15.20;99.90
18218;DHT22;9234;49.344;11.120;2023-08-06T03:24:14;15.10;99.90
18218;DHT22;9234;49.344;11.120;2023-08-06T03:26:45;15.10;99.90
18218;DHT22;9234;49.344;11.120;2023-08-06T03:29:14;15.10;99.90
18218;DHT22;9234;49.344;11.120;2023-08-06T03:31:44;15.10;99.90
18218;DHT22;9234;49.344;11.120;2023-08-06T03:34:14;15.10;99.90
18218;DHT22;9234;49.344;11.120;2023-08-06T03:36:44;15.00;99.90
18218;DHT22;9234;49.344;11.120;2023-08-06T03:39:13;15.00;99.90
18218;DHT22;9234;49.344;11.120;2023-08-06T03:41:42;14.90;99.90
18218;DHT22;9234;49.344;11.120;2023-08-06T03:44:10;14.90;99.90
18218;DHT22;9234;49.344;11.120;2023-08-06T03:46:40;14.80;99.90
18218;DHT22;9234;49.344;11.120;2023-08-06T03:49:11;14.70;99.90
18218;DHT22;9234;49.344;11.120;2023-08-06T03:51:40;14.60;99.90
18218;DHT22;9234;49.344;11.120;2023-08-06T03:54:09;14.60;99.90
18218;DHT22;9234;49.344;11.120;2023-08-06T03:56:38;14.50;99.90
18218;DHT22;9234;49.344;11.120;2023-08-06T03:59:06;14.40;99.90
18218;DHT22;9234;49.344;11.120;2023-08-06T04:01:35;14.40;99.90
18218;DHT22;9234;49.344;11.120;2023-08-06T04:04:03;14.30;99.90
18218;DHT22;9234;49.344;11.120;2023-08-06T04:06:33;14.20;99.90
18218;DHT22;9234;49.344;11.120;2023-08-06T04:09:01;14.20;99.90
18218;DHT22;9234;49.344;11.120;2023-08-06T04:11:30;14.10;99.90
18218;DHT22;9234;49.344;11.120;2023-08-06T04:13:58;14.10;99.90
18218;DHT22;9234;49.344;11.120;2023-08-06T04:16:26;14.00;99.90
18218;DHT22;9234;49.344;11.120;2023-08-06T04:18:55;14.00;99.90
18218;DHT22;9234;49.344;11.120;2023-08-06T04:21:25;13.90;99.90
18218;DHT22;9234;49.344;11.120;2023-08-06T04:23:55;13.90;99.90
18218;DHT22;9234;49.344;11.120;2023-08-06T04:26:24;13.80;99.90
18218;DHT22;9234;49.344;11.120;2023-08-06T04:28:52;13.80;99.90
18218;DHT22;9234;49.344;11.120;2023-08-06T04:31:21;13.80;99.90
18218;DHT22;9234;49.344;11.120;2023-08-06T04:33:50;13.80;99.90
18218;DHT22;9234;49.344;11.120;2023-08-06T04:36:18;13.70;99.90
18218;DHT22;9234;49.344;11.120;2023-08-06T04:38:46;13.70;99.90
18218;DHT22;9234;49.344;11.120;2023-08-06T04:41:17;13.70;99.90
18218;DHT22;9234;49.344;11.120;2023-08-06T04:43:45;13.70;99.90
18218;DHT22;9234;49.344;11.120;2023-08-06T04:46:14;13.70;99.90
18218;DHT22;9234;49.344;11.120;2023-08-06T04:48:42;13.60;99.90
18218;DHT22;9234;49.344;11.120;2023-08-06T04:51:10;13.60;99.90
18218;DHT22;9234;49.344;11.120;2023-08-06T04:53:39;13.60;99.90
18218;DHT22;9234;49.344;11.120;2023-08-06T04:56:06;13.60;99.90
18218;DHT22;9234;49.344;11.120;2023-08-06T04:58:35;13.60;99.90
18218;DHT22;9234;49.344;11.120;2023-08-06T05:01:06;13.60;99.90
18218;DHT22;9234;49.344;11.120;2023-08-06T05:03:35;13.60;99.90
18218;DHT22;9234;49.344;11.120;2023-08-06T05:06:03;13.70;99.90
18218;DHT22;9234;49.344;11.120;2023-08-06T05:08:31;13.80;99.90
18218;DHT22;9234;49.344;11.120;2023-08-06T05:11:00;13.90;99.90
18218;DHT22;9234;49.344;11.120;2023-08-06T05:13:28;14.00;99.90
18218;DHT22;9234;49.344;11.120;2023-08-06T05:15:58;14.10;99.90
18218;DHT22;9234;49.344;11.120;2023-08-06T05:18:26;14.10;99.90
18218;DHT22;9234;49.344;11.120;2023-08-06T05:20:55;14.20;99.90
18218;DHT22;9234;49.344;11.120;2023-08-06T05:23:24;14.30;99.90
18218;DHT22;9234;49.344;11.120;2023-08-06T05:25:52;14.40;99.90
18218;DHT22;9234;49.344;11.120;2023-08-06T05:28:21;14.50;99.90
18218;DHT22;9234;49.344;11.120;2023-08-06T05:30:49;14.60;99.90
18218;DHT22;9234;49.344;11.120;2023-08-06T05:33:19;14.60;99.90
18218;DHT22;9234;49.344;11.120;2023-08-06T05:35:49;14.70;99.90
18218;DHT22;9234;49.344;11.120;2023-08-06T05:38:17;14.80;99.90
18218;DHT22;9234;49.344;11.120;2023-08-06T05:40:45;14.90;99.90
18218;DHT22;9234;49.344;11.120;2023-08-06T05:43:14;15.00;99.90
18218;DHT22;9234;49.344;11.120;2023-08-06T05:45:44;15.00;99.90
18218;DHT22;9234;49.344;11.120;2023-08-06T05:48:13;15.00;99.90
18218;DHT22;9234;49.344;11.120;2023-08-06T05:50:42;15.10;99.90
18218;DHT22;9234;49.344;11.120;2023-08-06T05:53:11;15.10;99.90
18218;DHT22;9234;49.344;11.120;2023-08-06T05:55:39;15.10;99.90
18218;DHT22;9234;49.344;11.120;2023-08-06T05:58:08;15.10;99.90
18218;DHT22;9234;49.344;11.120;2023-08-06T06:00:36;15.20;99.90
18218;DHT22;9234;49.344;11.120;2023-08-06T06:03:05;15.20;99.90
18218;DHT22;9234;49.344;11.120;2023-08-06T06:05:33;15.30;99.90
18218;DHT22;9234;49.344;11.120;2023-08-06T06:08:03;15.40;99.90
18218;DHT22;9234;49.344;11.120;2023-08-06T06:10:31;15.60;99.90
18218;DHT22;9234;49.344;11.120;2023-08-06T06:13:00;15.70;99.90
18218;DHT22;9234;49.344;11.120;2023-08-06T06:15:28;15.90;99.90
18218;DHT22;9234;49.344;11.120;2023-08-06T06:17:57;16.10;99.90
18218;DHT22;9234;49.344;11.120;2023-08-06T06:20:25;16.30;99.90
18218;DHT22;9234;49.344;11.120;2023-08-06T06:22:53;16.40;99.90
18218;DHT22;9234;49.344;11.120;2023-08-06T06:25:23;16.40;99.90
18218;DHT22;9234;49.344;11.120;2023-08-06T06:27:51;16.40;99.90
18218;DHT22;9234;49.344;11.120;2023-08-06T06:30:20;16.40;99.90
18218;DHT22;9234;49.344;11.120;2023-08-06T06:32:49;16.30;99.90
18218;DHT22;9234;49.344;11.120;2023-08-06T06:35:17;16.30;99.90
18218;DHT22;9234;49.344;11.120;2023-08-06T06:37:46;16.30;99.90
18218;DHT22;9234;49.344;11.120;2023-08-06T06:40:14;16.20;99.90
18218;DHT22;9234;49.344;11.120;2023-08-06T06:42:44;16.20;99.90
18218;DHT22;9234;49.344;11.120;2023-08-06T06:45:14;16.20;99.90
18218;DHT22;9234;49.344;11.120;2023-08-06T06:47:42;16.20;99.90
18218;DHT22;9234;49.344;11.120;2023-08-06T06:50:11;16.20;99.90
18218;DHT22;9234;49.344;11.120;2023-08-06T06:52:39;16.30;99.90
18218;DHT22;9234;49.344;11.120;2023-08-06T06:55:08;16.30;99.90
18218;DHT22;9234;49.344;11.120;2023-08-06T06:57:36;16.30;99.90
18218;DHT22;9234;49.344;11.120;2023-08-06T07:00:07;16.40;99.90
18218;DHT22;9234;49.344;11.120;2023-08-06T07:02:36;16.40;99.90
18218;DHT22;9234;49.344;11.120;2023-08-06T07:05:04;16.50;99.90
18218;DHT22;9234;49.344;11.120;2023-08-06T07:07:34;16.60;99.90
18218;DHT22;9234;49.344;11.120;2023-08-06T07:10:04;16.70;99.90
18218;DHT22;9234;49.344;11.120;2023-08-06T07:12:33;16.80;99.90
18218;DHT22;9234;49.344;11.120;2023-08-06T07:15:06;16.90;99.90
18218;DHT22;9234;49.344;11.120;2023-08-06T07:17:34;17.00;99.90
18218;DHT22;9234;49.344;11.120;2023-08-06T07:20:04;17.10;99.90
18218;DHT22;9234;49.344;11.120;2023-08-06T07:22:34;17.20;99.90
18218;DHT22;9234;49.344;11.120;2023-08-06T07:25:03;17.30;99.90
18218;DHT22;9234;49.344;11.120;2023-08-06T07:27:33;17.50;99.90
18218;DHT22;9234;49.344;11.120;2023-08-06T07:30:01;17.60;99.90
18218;DHT22;9234;49.344;11.120;2023-08-06T07:32:31;17.60;99.90
18218;DHT22;9234;49.344;11.120;2023-08-06T07:35:00;17.60;99.90
18218;DHT22;9234;49.344;11.120;2023-08-06T07:37:30;17.60;99.90
18218;DHT22;9234;49.344;11.120;2023-08-06T07:39:58;17.60;99.90
18218;DHT22;9234;49.344;11.120;2023-08-06T07:42:27;17.60;99.90
18218;DHT22;9234;49.344;11.120;2023-08-06T07:44:57;17.60;99.90
18218;DHT22;9234;49.344;11.120;2023-08-06T07:47:27;17.60;99.90
18218;DHT22;9234;49.344;11.120;2023-08-06T07:49:57;17.70;99.90
18218;DHT22;9234;49.344;11.120;2023-08-06T07:52:25;17.70;99.90
18218;DHT22;9234;49.344;11.120;2023-08-06T07:54:54;17.70;99.90
18218;DHT22;9234;49.344;11.120;2023-08-06T07:57:22;17.70;99.90
18218;DHT22;9234;49.344;11.120;2023-08-06T07:59:51;17.60;99.90
18218;DHT22;9234;49.344;11.120;2023-08-06T08:02:20;17.60;99.90
18218;DHT22;9234;49.344;11.120;2023-08-06T08:04:48;17.60;99.90
18218;DHT22;9234;49.344;11.120;2023-08-06T08:07:18;17.50;99.90
18218;DHT22;9234;49.344;11.120;2023-08-06T08:09:47;17.50;99.90
18218;DHT22;9234;49.344;11.120;2023-08-06T08:12:16;17.50;99.90
18218;DHT22;9234;49.344;11.120;2023-08-06T08:14:44;17.50;99.90
18218;DHT22;9234;49.344;11.120;2023-08-06T08:17:13;17.60;99.90
18218;DHT22;9234;49.344;11.120;2023-08-06T08:19:41;17.70;99.90
18218;DHT22;9234;49.344;11.120;2023-08-06T08:22:10;17.80;99.90
18218;DHT22;9234;49.344;11.120;2023-08-06T08:24:40;18.10;99.90
18218;DHT22;9234;49.344;11.120;2023-08-06T08:27:08;18.40;99.90
18218;DHT22;9234;49.344;11.120;2023-08-06T08:29:36;18.50;99.90
18218;DHT22;9234;49.344;11.120;2023-08-06T08:32:05;18.50;99.90
18218;DHT22;9234;49.344;11.120;2023-08-06T08:34:34;18.40;99.90
18218;DHT22;9234;49.344;11.120;2023-08-06T08:37:03;18.20;99.90
18218;DHT22;9234;49.344;11.120;2023-08-06T08:39:34;18.10;99.90
18218;DHT22;9234;49.344;11.120;2023-08-06T08:42:06;18.00;99.90
18218;DHT22;9234;49.344;11.120;2023-08-06T08:44:35;17.90;99.90
18218;DHT22;9234;49.344;11.120;2023-08-06T08:47:06;17.90;99.90
18218;DHT22;9234;49.344;11.120;2023-08-06T08:49:36;17.90;99.90
18218;DHT22;9234;49.344;11.120;2023-08-06T08:52:05;18.00;99.90
18218;DHT22;9234;49.344;11.120;2023-08-06T08:54:38;18.00;99.90
18218;DHT22;9234;49.344;11.120;2023-08-06T08:57:09;18.00;99.90
18218;DHT22;9234;49.344;11.120;2023-08-06T08:59:38;18.00;99.90
18218;DHT22;9234;49.344;11.120;2023-08-06T09:02:08;18.10;99.90
18218;DHT22;9234;49.344;11.120;2023-08-06T09:04:41;18.20;99.90
18218;DHT22;9234;49.344;11.120;2023-08-06T09:07:13;18.30;99.90
18218;DHT22;9234;49.344;11.120;2023-08-06T09:09:49;18.40;99.90
18218;DHT22;9234;49.344;11.120;2023-08-06T09:12:21;18.60;99.90
18218;DHT22;9234;49.344;11.120;2023-08-06T09:14:50;18.60;99.90
18218;DHT22;9234;49.344;11.120;2023-08-06T09:17:19;18.70;99.90
18218;DHT22;9234;49.344;11.120;2023-08-06T09:19:47;18.90;99.90
18218;DHT22;9234;49.344;11.120;2023-08-06T09:22:16;18.90;99.90
18218;DHT22;9234;49.344;11.120;2023-08-06T09:24:44;19.00;99.90
18218;DHT22;9234;49.344;11.120;2023-08-06T09:27:14;19.00;99.90
18218;DHT22;9234;49.344;11.120;2023-08-06T09:29:45;19.10;99.90
18218;DHT22;9234;49.344;11.120;2023-08-06T09:32:14;19.10;99.90
18218;DHT22;9234;49.344;11.120;2023-08-06T09:34:43;19.10;99.90
18218;DHT22;9234;49.344;11.120;2023-08-06T09:37:12;19.00;99.90
18218;DHT22;9234;49.344;11.120;2023-08-06T09:39:40;18.90;99.90
18218;DHT22;9234;49.344;11.120;2023-08-06T09:42:09;18.90;99.90
18218;DHT22;9234;49.344;11.120;2023-08-06T09:44:40;18.70;99.90
18218;DHT22;9234;49.344;11.120;2023-08-06T09:47:11;18.60;99.90
18218;DHT22;9234;49.344;11.120;2023-08-06T09:49:42;18.50;99.90
18218;DHT22;9234;49.344;11.120;2023-08-06T09:52:13;18.40;99.90
18218;DHT22;9234;49.344;11.120;2023-08-06T09:54:43;18.50;99.90
18218;DHT22;9234;49.344;11.120;2023-08-06T09:57:13;18.80;99.90
18218;DHT22;9234;49.344;11.120;2023-08-06T09:59:42;18.90;99.90
18218;DHT22;9234;49.344;11.120;2023-08-06T10:02:13;19.10;99.90
18218;DHT22;9234;49.344;11.120;2023-08-06T10:04:44;19.10;99.90
18218;DHT22;9234;49.344;11.120;2023-08-06T10:07:21;19.10;99.90
18218;DHT22;9234;49.344;11.120;2023-08-06T10:09:51;19.10;99.90
18218;DHT22;9234;49.344;11.120;2023-08-06T10:12:19;19.00;99.90
18218;DHT22;9234;49.344;11.120;2023-08-06T10:14:50;19.00;99.90
18218;DHT22;9234;49.344;11.120;2023-08-06T10:17:23;19.00;99.90
18218;DHT22;9234;49.344;11.120;2023-08-06T10:20:11;19.10;99.90
18218;DHT22;9234;49.344;11.120;2023-08-06T10:22:42;19.30;99.90
18218;DHT22;9234;49.344;11.120;2023-08-06T10:25:16;19.30;99.90
18218;DHT22;9234;49.344;11.120;2023-08-06T10:27:53;19.30;99.90
18218;DHT22;9234;49.344;11.120;2023-08-06T10:30:24;19.20;99.90
18218;DHT22;9234;49.344;11.120;2023-08-06T10:32:55;19.00;99.90
18218;DHT22;9234;49.344;11.120;2023-08-06T10:35:28;18.80;99.90
18218;DHT22;9234;49.344;11.120;2023-08-06T10:37:59;18.60;99.90
18218;DHT22;9234;49.344;11.120;2023-08-06T10:40:31;18.50;99.90
18218;DHT22;9234;49.344;11.120;2023-08-06T10:43:01;18.30;99.90
18218;DHT22;9234;49.344;11.120;2023-08-06T10:45:30;18.30;99.90
18218;DHT22;9234;49.344;11.120;2023-08-06T10:48:04;18.40;99.90
18218;DHT22;9234;49.344;11.120;2023-08-06T10:50:33;18.60;99.90
18218;DHT22;9234;49.344;11.120;2023-08-06T10:53:04;18.90;99.90
18218;DHT22;9234;49.344;11.120;2023-08-06T10:55:34;19.10;99.90
18218;DHT22;9234;49.344;11.120;2023-08-06T10:58:05;19.20;99.90
18218;DHT22;9234;49.344;11.120;2023-08-06T11:00:33;19.20;99.90
18218;DHT22;9234;49.344;11.120;2023-08-06T11:03:04;19.30;99.90
18218;DHT22;9234;49.344;11.120;2023-08-06T11:05:33;19.50;99.90
18218;DHT22;9234;49.344;11.120;2023-08-06T11:08:01;19.60;99.90
18218;DHT22;9234;49.344;11.120;2023-08-06T11:10:32;19.60;99.90
18218;DHT22;9234;49.344;11.120;2023-08-06T11:13:01;19.40;99.90
18218;DHT22;9234;49.344;11.120;2023-08-06T11:15:30;19.20;99.90
18218;DHT22;9234;49.344;11.120;2023-08-06T11:17:59;19.00;99.90
18218;DHT22;9234;49.344;11.120;2023-08-06T11:20:28;18.80;99.90
18218;DHT22;9234;49.344;11.120;2023-08-06T11:22:57;18.70;99.90
18218;DHT22;9234;49.344;11.120;2023-08-06T11:25:25;18.70;99.90
18218;DHT22;9234;49.344;11.120;2023-08-06T11:27:54;18.90;99.90
18218;DHT22;9234;49.344;11.120;2023-08-06T11:30:22;19.20;99.90
18218;DHT22;9234;49.344;11.120;2023-08-06T11:32:50;19.50;99.90
18218;DHT22;9234;49.344;11.120;2023-08-06T11:35:19;19.80;99.90
18218;DHT22;9234;49.344;11.120;2023-08-06T11:37:49;20.00;99.90
18218;DHT22;9234;49.344;11.120;2023-08-06T11:40:18;20.20;99.90
18218;DHT22;9234;49.344;11.120;2023-08-06T11:42:46;20.30;99.90
18218;DHT22;9234;49.344;11.120;2023-08-06T11:45:15;20.40;99.90
18218;DHT22;9234;49.344;11.120;2023-08-06T11:47:50;20.50;99.90
18218;DHT22;9234;49.344;11.120;2023-08-06T11:50:23;20.50;99.90
18218;DHT22;9234;49.344;11.120;2023-08-06T11:52:57;20.60;99.90
18218;DHT22;9234;49.344;11.120;2023-08-06T11:55:28;20.70;99.90
18218;DHT22;9234;49.344;11.120;2023-08-06T11:57:57;20.80;99.90
18218;DHT22;9234;49.344;11.120;2023-08-06T12:00:26;20.80;99.90
18218;DHT22;9234;49.344;11.120;2023-08-06T12:02:54;20.60;99.90
18218;DHT22;9234;49.344;11.120;2023-08-06T12:05:30;20.60;99.90
18218;DHT22;9234;49.344;11.120;2023-08-06T12:08:02;20.80;99.90
18218;DHT22;9234;49.344;11.120;2023-08-06T12:10:32;20.80;99.90
18218;DHT22;9234;49.344;11.120;2023-08-06T12:13:01;20.70;99.90
18218;DHT22;9234;49.344;11.120;2023-08-06T12:15:29;20.60;99.90
18218;DHT22;9234;49.344;11.120;2023-08-06T12:17:59;20.60;99.90
18218;DHT22;9234;49.344;11.120;2023-08-06T12:20:28;20.70;99.90
18218;DHT22;9234;49.344;11.120;2023-08-06T12:22:56;21.00;99.90
18218;DHT22;9234;49.344;11.120;2023-08-06T12:25:26;21.30;99.80
18218;DHT22;9234;49.344;11.120;2023-08-06T12:27:55;21.40;99.10
18218;DHT22;9234;49.344;11.120;2023-08-06T12:30:24;21.20;98.90
18218;DHT22;9234;49.344;11.120;2023-08-06T12:32:53;21.00;99.20
18218;DHT22;9234;49.344;11.120;2023-08-06T12:35:21;20.80;99.50
18218;DHT22;9234;49.344;11.120;2023-08-06T12:37:52;20.70;99.10
18218;DHT22;9234;49.344;11.120;2023-08-06T12:40:21;20.50;99.50
18218;DHT22;9234;49.344;11.120;2023-08-06T12:43:05;20.40;99.50
18218;DHT22;9234;49.344;11.120;2023-08-06T12:45:33;20.20;99.70
18218;DHT22;9234;49.344;11.120;2023-08-06T12:48:02;20.30;99.90
18218;DHT22;9234;49.344;11.120;2023-08-06T12:50:31;20.20;99.90
18218;DHT22;9234;49.344;11.120;2023-08-06T12:53:01;20.10;99.80
18218;DHT22;9234;49.344;11.120;2023-08-06T12:55:31;19.90;99.90
18218;DHT22;9234;49.344;11.120;2023-08-06T12:57:59;19.80;99.90
18218;DHT22;9234;49.344;11.120;2023-08-06T13:00:29;19.80;99.90
18218;DHT22;9234;49.344;11.120;2023-08-06T13:02:57;19.80;99.90
18218;DHT22;9234;49.344;11.120;2023-08-06T13:05:26;20.00;99.90
18218;DHT22;9234;49.344;11.120;2023-08-06T13:07:54;20.10;99.90
18218;DHT22;9234;49.344;11.120;2023-08-06T13:10:23;20.10;99.90
18218;DHT22;9234;49.344;11.120;2023-08-06T13:12:54;20.20;99.90
18218;DHT22;9234;49.344;11.120;2023-08-06T13:15:22;20.20;99.90
18218;DHT22;9234;49.344;11.120;2023-08-06T13:17:52;20.20;99.40
18218;DHT22;9234;49.344;11.120;2023-08-06T13:20:20;20.10;99.50
18218;DHT22;9234;49.344;11.120;2023-08-06T13:22:49;19.90;99.90
18218;DHT22;9234;49.344;11.120;2023-08-06T13:25:20;19.80;99.90
18218;DHT22;9234;49.344;11.120;2023-08-06T13:27:48;19.70;99.90
18218;DHT22;9234;49.344;11.120;2023-08-06T13:30:17;19.50;99.90
18218;DHT22;9234;49.344;11.120;2023-08-06T13:32:45;19.40;99.90
18218;DHT22;9234;49.344;11.120;2023-08-06T13:35:15;19.20;99.90
18218;DHT22;9234;49.344;11.120;2023-08-06T13:37:44;19.30;99.90
18218;DHT22;9234;49.344;11.120;2023-08-06T13:40:15;19.40;99.90
18218;DHT22;9234;49.344;11.120;2023-08-06T13:42:44;19.40;99.90
18218;DHT22;9234;49.344;11.120;2023-08-06T13:45:12;19.30;99.90
18218;DHT22;9234;49.344;11.120;2023-08-06T13:47:41;19.10;99.90
18218;DHT22;9234;49.344;11.120;2023-08-06T13:50:10;19.00;99.90
18218;DHT22;9234;49.344;11.120;2023-08-06T13:52:40;18.80;99.90
18218;DHT22;9234;49.344;11.120;2023-08-06T13:55:08;18.60;99.90
18218;DHT22;9234;49.344;11.120;2023-08-06T13:57:37;18.40;99.90
18218;DHT22;9234;49.344;11.120;2023-08-06T14:00:06;18.30;99.90
18218;DHT22;9234;49.344;11.120;2023-08-06T14:02:38;18.30;99.90
18218;DHT22;9234;49.344;11.120;2023-08-06T14:05:07;18.30;99.90
18218;DHT22;9234;49.344;11.120;2023-08-06T14:07:36;18.10;99.90
18218;DHT22;9234;49.344;11.120;2023-08-06T14:10:07;17.90;99.90
18218;DHT22;9234;49.344;11.120;2023-08-06T14:12:36;17.80;99.90
18218;DHT22;9234;49.344;11.120;2023-08-06T14:15:05;17.70;99.90
18218;DHT22;9234;49.344;11.120;2023-08-06T14:17:34;17.60;99.90
18218;DHT22;9234;49.344;11.120;2023-08-06T14:20:04;17.60;99.90
18218;DHT22;9234;49.344;11.120;2023-08-06T14:22:36;17.50;99.90
18218;DHT22;9234;49.344;11.120;2023-08-06T14:25:07;17.40;99.90
18218;DHT22;9234;49.344;11.120;2023-08-06T14:27:35;17.30;99.90
18218;DHT22;9234;49.344;11.120;2023-08-06T14:30:06;17.20;99.90
18218;DHT22;9234;49.344;11.120;2023-08-06T14:32:35;17.10;99.90
18218;DHT22;9234;49.344;11.120;2023-08-06T14:35:04;17.00;99.90
18218;DHT22;9234;49.344;11.120;2023-08-06T14:37:33;16.90;99.90
18218;DHT22;9234;49.344;11.120;2023-08-06T14:40:01;16.80;99.90
18218;DHT22;9234;49.344;11.120;2023-08-06T14:42:32;16.70;99.90
18218;DHT22;9234;49.344;11.120;2023-08-06T14:45:00;16.60;99.90
18218;DHT22;9234;49.344;11.120;2023-08-06T14:47:29;16.50;99.90
18218;DHT22;9234;49.344;11.120;2023-08-06T14:49:58;16.50;99.90
18218;DHT22;9234;49.344;11.120;2023-08-06T14:52:26;16.40;99.90
18218;DHT22;9234;49.344;11.120;2023-08-06T14:54:55;16.30;99.90
18218;DHT22;9234;49.344;11.120;2023-08-06T14:57:24;16.20;99.90
18218;DHT22;9234;49.344;11.120;2023-08-06T14:59:56;16.20;99.90
18218;DHT22;9234;49.344;11.120;2023-08-06T15:02:25;16.20;99.90
18218;DHT22;9234;49.344;11.120;2023-08-06T15:04:54;16.20;99.90
18218;DHT22;9234;49.344;11.120;2023-08-06T15:07:23;16.30;99.90
18218;DHT22;9234;49.344;11.120;2023-08-06T15:09:52;16.40;99.90
18218;DHT22;9234;49.344;11.120;2023-08-06T15:12:42;16.50;99.90
18218;DHT22;9234;49.344;11.120;2023-08-06T15:15:12;16.60;99.90
18218;DHT22;9234;49.344;11.120;2023-08-06T15:17:41;16.60;99.90
18218;DHT22;9234;49.344;11.120;2023-08-06T15:20:10;16.60;99.90
18218;DHT22;9234;49.344;11.120;2023-08-06T15:22:40;16.60;99.90
18218;DHT22;9234;49.344;11.120;2023-08-06T15:25:08;16.60;99.90
18218;DHT22;9234;49.344;11.120;2023-08-06T15:27:37;16.60;99.90
18218;DHT22;9234;49.344;11.120;2023-08-06T15:30:07;16.60;99.90
18218;DHT22;9234;49.344;11.120;2023-08-06T15:32:38;16.50;99.90
18218;DHT22;9234;49.344;11.120;2023-08-06T15:35:11;16.50;99.90
18218;DHT22;9234;49.344;11.120;2023-08-06T15:37:39;16.40;99.90
18218;DHT22;9234;49.344;11.120;2023-08-06T15:40:09;16.40;99.90
18218;DHT22;9234;49.344;11.120;2023-08-06T15:42:38;16.40;99.90
18218;DHT22;9234;49.344;11.120;2023-08-06T15:45:07;16.40;99.90